Stony Plain, Canada
Current Conditions -  °F | °C
As of 8:00 AM on Friday 19 Dec 2014 (Local Time) from CZVL Reporting Station
Haze Haze  
Wind Chill:   Ceiling: Unl
Heat Index:   Visibility: 5mi
Dew Point:   Wind: 2mph
Humidity: 85%   Direction: NA
Pressure: 29.71"   Gusts: NA
Location:  53.53°N, 114.01°W
Report Text: CZVL 191500Z AUTO VRB02KT 5SM BR CLR M13/M15 A2971 RMK SLP109
Loading
Personal Weather Stations






























Interactive Weather Map New forecast layout! Learn more

10-Day Weather Forecast

Advertisements
Track Severe Weather on mobile